Time;durP1;ratioP1;P1;durP2;ratioP2;P2;SDS_P1;SDS_P2;PMS_P1;PMS_P2;Temp;Humidity;BMP_temperature;BMP_pressure;BME280_temperature;BME280_humidity;BME280_pressure;Samples;Min_cycle;Max_cycle;Signal;HPM_P1;HPM_P2
2022/09/07 00:00:08;;;;;;;10.73;2.50;;;23.60;87.20;;;;;;2568522;23;20008;-72
2022/09/07 00:01:08;;;;;;;15.57;2.00;;;23.60;88.90;;;;;;2568770;23;19993;-72
2022/09/07 00:02:09;;;;;;;8.68;1.83;;;23.60;90.60;;;;;;2568629;23;20583;-72
2022/09/07 00:03:09;;;;;;;11.40;2.30;;;23.60;92.00;;;;;;2567746;23;20000;-73
2022/09/07 00:04:10;;;;;;;6.65;1.83;;;23.50;93.00;;;;;;2568293;23;20024;-73
2022/09/07 00:05:10;;;;;;;8.07;1.55;;;23.50;93.90;;;;;;2568204;23;20001;-73
2022/09/07 00:06:13;;;;;;;7.25;1.70;;;23.40;94.70;;;;;;2568058;23;20009;-72
2022/09/07 00:07:13;;;;;;;6.22;1.30;;;23.40;95.40;;;;;;2568338;23;19996;-73
2022/09/07 00:08:15;;;;;;;8.43;1.67;;;23.30;95.50;;;;;;2568324;23;20011;-73
2022/09/07 00:09:16;;;;;;;6.68;1.30;;;23.30;96.90;;;;;;2568323;23;20001;-73
2022/09/07 00:10:17;;;;;;;3.58;1.20;;;23.30;98.00;;;;;;2568373;23;20004;-73
2022/09/07 00:11:18;;;;;;;9.18;1.50;;;23.20;98.60;;;;;;2568350;23;20005;-73
2022/09/07 00:12:19;;;;;;;3.58;1.35;;;23.20;99.70;;;;;;2568360;23;20074;-73
2022/09/07 00:13:21;;;;;;;3.38;1.55;;;23.10;99.90;;;;;;2567921;23;20004;-73
2022/09/07 00:14:21;;;;;;;2.80;1.23;;;23.10;99.90;;;;;;2568130;23;20005;-73
2022/09/07 00:15:22;;;;;;;2.65;1.40;;;23.00;99.90;;;;;;2568331;23;20008;-72
2022/09/07 00:16:28;;;;;;;4.93;1.20;;;23.00;99.90;;;;;;2567479;23;20008;-72
2022/09/07 00:17:29;;;;;;;2.95;1.30;;;23.00;99.90;;;;;;2567996;23;20009;-73
2022/09/07 00:18:30;;;;;;;4.22;1.33;;;22.90;99.90;;;;;;2568567;23;20001;-72
2022/09/07 00:19:30;;;;;;;4.10;0.93;;;22.80;99.90;;;;;;2568514;23;20108;-72
2022/09/07 00:20:31;;;;;;;2.95;0.73;;;22.80;99.90;;;;;;2568014;23;20036;-72
2022/09/07 00:21:32;;;;;;;1.25;0.77;;;22.70;99.90;;;;;;2568290;23;20031;-73
2022/09/07 00:22:34;;;;;;;3.00;1.13;;;22.70;99.90;;;;;;2568429;23;20098;-73
2022/09/07 00:23:36;;;;;;;3.78;0.90;;;22.60;99.90;;;;;;2567544;23;20035;-72
2022/09/07 00:24:37;;;;;;;4.82;1.13;;;22.60;99.90;;;;;;2568053;23;20023;-72
2022/09/07 00:25:39;;;;;;;2.00;1.05;;;22.60;99.90;;;;;;2568131;23;20003;-73
2022/09/07 00:26:39;;;;;;;3.40;1.50;;;22.60;99.90;;;;;;2568245;23;20000;-73
2022/09/07 00:27:40;;;;;;;5.28;1.23;;;22.50;99.90;;;;;;2568114;23;20515;-73
2022/09/07 00:28:41;;;;;;;2.15;0.82;;;22.50;99.90;;;;;;2567650;23;20001;-72
2022/09/07 00:29:42;;;;;;;4.75;1.55;;;22.50;99.90;;;;;;2568559;23;20031;-73
2022/09/07 00:30:42;;;;;;;2.45;1.10;;;22.50;99.90;;;;;;2568240;23;19997;-73
2022/09/07 00:31:43;;;;;;;2.80;1.30;;;22.50;99.90;;;;;;2555194;23;20024;-72
2022/09/07 00:32:44;;;;;;;4.00;1.23;;;22.40;99.90;;;;;;2554516;23;19993;-72
2022/09/07 00:33:47;;;;;;;5.10;1.38;;;22.40;99.90;;;;;;2568130;23;20320;-72
2022/09/07 00:34:49;;;;;;;5.45;1.65;;;22.40;99.90;;;;;;2568294;23;20305;-72
2022/09/07 00:35:50;;;;;;;3.10;1.20;;;22.40;99.90;;;;;;2568105;23;20005;-72
2022/09/07 00:36:50;;;;;;;2.05;1.25;;;22.40;99.90;;;;;;2567952;23;20024;-73
2022/09/07 00:37:51;;;;;;;2.13;1.40;;;22.40;99.90;;;;;;2568080;23;20122;-72
2022/09/07 00:38:52;;;;;;;2.95;1.27;;;22.40;99.90;;;;;;2568337;23;20013;-72
2022/09/07 00:39:53;;;;;;;3.33;1.70;;;22.40;99.90;;;;;;2554826;23;20077;-72
2022/09/07 00:40:53;;;;;;;3.60;1.80;;;22.40;99.90;;;;;;2555477;23;20028;-72
2022/09/07 00:41:54;;;;;;;4.22;1.50;;;22.40;99.90;;;;;;2553878;23;20009;-73
2022/09/07 00:42:54;;;;;;;3.00;1.70;;;22.40;99.90;;;;;;2542833;23;20014;-73
2022/09/07 00:43:58;;;;;;;6.18;2.05;;;22.30;99.90;;;;;;2554372;23;20009;-73
2022/09/07 00:45:02;;;;;;;5.25;1.42;;;22.30;99.90;;;;;;2568068;23;20433;-73
2022/09/07 00:46:04;;;;;;;3.92;1.60;;;22.30;99.90;;;;;;2567656;23;20001;-73
2022/09/07 00:47:14;;;;;;;3.53;1.70;;;22.30;99.90;;;;;;2568451;23;20000;-73
2022/09/07 00:48:18;;;;;;;3.90;1.73;;;22.30;99.90;;;;;;2568277;23;20009;-72
2022/09/07 00:49:21;;;;;;;4.38;1.35;;;22.20;99.90;;;;;;2568079;23;20008;-72
2022/09/07 00:50:38;;;;;;;3.85;1.70;;;22.20;99.90;;;;;;2568122;23;20031;-72
2022/09/07 00:51:51;;;;;;;3.22;1.70;;;22.10;99.90;;;;;;2568215;23;20007;-72
2022/09/07 00:53:31;;;;;;;3.15;1.77;;;22.10;99.90;;;;;;2568035;23;20007;-73
2022/09/07 00:55:00;;;;;;;2.60;1.35;;;22.10;99.90;;;;;;2568550;23;20005;-72
2022/09/07 00:56:02;;;;;;;2.50;1.35;;;22.00;99.90;;;;;;2563513;23;20005;-72
2022/09/07 00:57:04;;;;;;;2.50;1.30;;;22.00;99.90;;;;;;2568452;23;20424;-72
2022/09/07 00:58:05;;;;;;;2.40;1.35;;;22.00;99.90;;;;;;2568272;23;20102;-72
2022/09/07 00:59:08;;;;;;;2.67;1.08;;;22.00;99.90;;;;;;2567996;23;20015;-72
2022/09/07 01:00:09;;;;;;;2.85;1.60;;;22.00;99.90;;;;;;2568291;23;20031;-72
2022/09/07 01:01:10;;;;;;;3.10;1.48;;;22.00;99.90;;;;;;2568281;23;20012;-73
2022/09/07 01:02:12;;;;;;;4.53;1.40;;;22.00;99.90;;;;;;2567858;23;20013;-73
2022/09/07 01:03:16;;;;;;;3.17;1.38;;;22.00;99.90;;;;;;2568109;23;20349;-73
2022/09/07 01:04:17;;;;;;;3.05;1.63;;;22.00;99.90;;;;;;2568330;23;20008;-73
2022/09/07 01:05:32;;;;;;;2.78;1.83;;;22.00;99.90;;;;;;2568216;23;20449;-73
2022/09/07 01:06:36;;;;;;;3.45;1.75;;;22.00;99.90;;;;;;2554662;23;19997;-72
2022/09/07 01:07:37;;;;;;;3.47;2.13;;;21.90;99.90;;;;;;2555220;23;20051;-72
2022/09/07 01:08:38;;;;;;;2.88;1.80;;;22.00;99.90;;;;;;2568424;23;20071;-72
2022/09/07 01:09:39;;;;;;;4.13;1.95;;;21.90;99.90;;;;;;2568116;23;20572;-73
2022/09/07 01:10:40;;;;;;;4.85;2.08;;;22.00;99.90;;;;;;2567994;23;20484;-72
2022/09/07 01:11:44;;;;;;;3.40;1.60;;;21.90;99.90;;;;;;2568221;23;20031;-73
2022/09/07 01:12:45;;;;;;;3.83;1.85;;;21.90;99.90;;;;;;2568639;23;20050;-73
2022/09/07 01:13:46;;;;;;;2.85;1.80;;;21.90;99.90;;;;;;2567272;23;20070;-73
2022/09/07 01:14:49;;;;;;;2.97;2.13;;;21.90;99.90;;;;;;2568439;23;20058;-73
2022/09/07 01:15:55;;;;;;;5.88;2.38;;;21.90;99.90;;;;;;2568237;23;20011;-73
2022/09/07 01:17:21;;;;;;;4.82;2.58;;;21.90;99.90;;;;;;2568047;23;20055;-73
2022/09/07 01:18:49;;;;;;;5.60;2.70;;;21.90;99.90;;;;;;2567848;23;20508;-73
2022/09/07 01:20:09;;;;;;;5.47;2.10;;;21.90;99.90;;;;;;2568274;23;20005;-73
2022/09/07 01:21:22;;;;;;;5.10;2.20;;;21.80;99.90;;;;;;2568257;23;20326;-73
2022/09/07 01:23:00;;;;;;;3.50;2.00;;;21.80;99.90;;;;;;2567982;23;20027;-73
2022/09/07 01:25:02;;;;;;;4.10;1.80;;;21.80;99.90;;;;;;2568543;23;20000;-73
2022/09/07 01:26:39;;;;;;;4.53;1.70;;;21.70;99.90;;;;;;2517320;23;20074;-73
2022/09/07 01:27:43;;;;;;;3.55;1.60;;;21.70;99.90;;;;;;2567526;23;20099;-73
2022/09/07 01:28:50;;;;;;;3.53;1.70;;;21.60;99.90;;;;;;2554478;23;20449;-73
2022/09/07 01:29:54;;;;;;;6.07;2.22;;;21.70;99.90;;;;;;2556641;23;20008;-73
2022/09/07 01:31:07;;;;;;;3.28;1.70;;;21.70;99.90;;;;;;2568178;23;20094;-73
2022/09/07 01:32:27;;;;;;;3.45;1.58;;;21.60;99.90;;;;;;2567846;23;20001;-73
2022/09/07 01:34:08;;;;;;;5.20;1.85;;;21.60;99.90;;;;;;2554595;23;20128;-73
2022/09/07 01:35:28;;;;;;;2.95;1.60;;;21.60;99.90;;;;;;2563992;23;20035;-73
2022/09/07 01:36:34;;;;;;;3.50;1.80;;;21.60;99.90;;;;;;2567863;23;20008;-73
2022/09/07 01:38:04;;;;;;;4.65;2.08;;;21.50;99.90;;;;;;2568038;23;20477;-73
2022/09/07 01:39:05;;;;;;;4.60;1.42;;;21.60;99.90;;;;;;2549668;23;20008;-73
2022/09/07 01:40:21;;;;;;;4.22;2.15;;;21.50;99.90;;;;;;2553729;23;20131;-73
2022/09/07 01:41:29;;;;;;;4.47;2.00;;;21.50;99.90;;;;;;2568012;23;20009;-73
2022/09/07 01:42:35;;;;;;;3.25;1.40;;;21.50;99.90;;;;;;2555069;23;20031;-73
2022/09/07 01:43:42;;;;;;;4.35;1.40;;;21.50;99.90;;;;;;2555491;23;20009;-73
2022/09/07 01:44:52;;;;;;;4.25;1.50;;;21.50;99.90;;;;;;2567907;23;20000;-73
2022/09/07 01:45:55;;;;;;;3.75;1.38;;;21.50;99.90;;;;;;2567572;23;20005;-73
2022/09/07 01:47:01;;;;;;;3.25;1.15;;;21.40;99.90;;;;;;2568235;23;20005;-73
2022/09/07 01:48:07;;;;;;;4.45;1.20;;;21.40;99.90;;;;;;2568014;23;20001;-73
2022/09/07 01:49:20;;;;;;;4.45;1.35;;;21.30;99.90;;;;;;2554970;23;20047;-73
2022/09/07 01:50:45;;;;;;;2.97;1.00;;;21.30;99.90;;;;;;2557695;23;20453;-73
2022/09/07 01:51:51;;;;;;;4.10;1.30;;;21.30;99.90;;;;;;2554341;23;20714;-73
2022/09/07 01:53:05;;;;;;;1.88;1.15;;;21.20;99.90;;;;;;2554715;23;20013;-73
2022/09/07 01:54:12;;;;;;;7.80;1.55;;;21.10;99.90;;;;;;2555217;23;20433;-73
2022/09/07 01:55:21;;;;;;;2.85;1.40;;;21.10;99.90;;;;;;2555310;23;20028;-73
2022/09/07 01:56:43;;;;;;;3.28;1.38;;;21.10;99.90;;;;;;2555437;23;20032;-73
2022/09/07 01:57:55;;;;;;;3.97;1.50;;;21.10;99.90;;;;;;2555670;23;20012;-73
2022/09/07 01:59:03;;;;;;;2.38;1.40;;;21.10;99.90;;;;;;2555717;23;20012;-73
2022/09/07 02:00:13;;;;;;;1.88;1.08;;;21.10;99.90;;;;;;2555831;23;20001;-73
2022/09/07 02:01:34;;;;;;;3.45;1.23;;;21.10;99.90;;;;;;2555738;23;20009;-73
2022/09/07 02:02:51;;;;;;;2.90;1.52;;;21.10;99.90;;;;;;2555548;23;20032;-73
2022/09/07 02:04:20;;;;;;;5.00;1.80;;;21.00;99.90;;;;;;2554323;23;20001;-73
2022/09/07 02:05:33;;;;;;;2.53;1.00;;;21.00;99.90;;;;;;2555042;23;20517;-73
2022/09/07 02:07:03;;;;;;;1.88;0.90;;;21.00;99.90;;;;;;2554290;23;20001;-73
2022/09/07 02:08:23;;;;;;;1.08;0.98;;;21.00;99.90;;;;;;2532615;23;20064;-73
2022/09/07 02:09:47;;;;;;;1.70;1.10;;;21.00;99.90;;;;;;2546746;23;20031;-73
2022/09/07 02:10:55;;;;;;;2.53;1.05;;;21.00;99.90;;;;;;2555443;23;19997;-73
2022/09/07 02:11:59;;;;;;;1.92;0.80;;;21.00;99.90;;;;;;2555415;23;20007;-73
2022/09/07 02:13:08;;;;;;;2.08;0.90;;;21.00;99.90;;;;;;2554630;23;20005;-73
2022/09/07 02:14:16;;;;;;;1.60;1.10;;;20.90;99.90;;;;;;2555945;23;20012;-73
2022/09/07 02:15:30;;;;;;;2.72;1.15;;;20.90;99.90;;;;;;2555490;23;20088;-74
2022/09/07 02:16:33;;;;;;;1.35;0.85;;;20.90;99.90;;;;;;2554942;23;20001;-74
2022/09/07 02:17:48;;;;;;;2.53;0.93;;;20.90;99.90;;;;;;2553892;23;20052;-74
2022/09/07 02:18:55;;;;;;;1.55;0.90;;;20.90;99.90;;;;;;2554877;23;20001;-74
2022/09/07 02:20:09;;;;;;;1.38;0.75;;;20.90;99.90;;;;;;2555930;23;20016;-74
2022/09/07 02:21:13;;;;;;;2.47;0.70;;;20.90;99.90;;;;;;2554789;23;20052;-73
2022/09/07 02:22:17;;;;;;;2.15;0.80;;;20.90;99.90;;;;;;2554520;23;20092;-74
2022/09/07 02:23:23;;;;;;;2.53;1.20;;;20.80;99.90;;;;;;2555043;23;20005;-74
2022/09/07 02:24:34;;;;;;;2.13;1.00;;;20.80;99.90;;;;;;2555709;23;20005;-74
2022/09/07 02:25:42;;;;;;;1.90;1.15;;;20.80;99.90;;;;;;2555712;23;19997;-74
2022/09/07 02:26:47;;;;;;;4.53;1.13;;;20.70;99.90;;;;;;2555818;23;20084;-74
2022/09/07 02:27:57;;;;;;;2.35;1.00;;;20.70;99.90;;;;;;2555210;23;20052;-74
2022/09/07 02:28:58;;;;;;;;;;;20.70;99.90;;;;;;2556025;23;19997;-74
2022/09/07 02:29:58;;;;;;;3.75;0.95;;;20.60;99.90;;;;;;2555412;23;19901;-74
2022/09/07 02:31:00;;;;;;;2.17;1.17;;;20.50;99.90;;;;;;2555863;23;20079;-74
2022/09/07 02:32:00;;;;;;;1.98;1.23;;;20.60;99.90;;;;;;2555440;23;20009;-74
2022/09/07 02:33:01;;;;;;;2.17;1.00;;;20.60;99.90;;;;;;2555120;23;20141;-74
2022/09/07 02:34:02;;;;;;;1.42;1.25;;;20.60;99.90;;;;;;2555701;23;20035;-74
2022/09/07 02:35:04;;;;;;;2.97;1.35;;;20.70;99.90;;;;;;2555444;23;20009;-74
2022/09/07 02:36:05;;;;;;;2.08;1.17;;;20.70;99.90;;;;;;2555355;23;20477;-73
2022/09/07 02:37:08;;;;;;;3.90;1.13;;;20.70;99.90;;;;;;2555482;23;20005;-74
2022/09/07 02:38:09;;;;;;;2.10;1.10;;;20.70;99.90;;;;;;2555436;23;20309;-74
2022/09/07 02:39:10;;;;;;;2.60;1.20;;;20.70;99.90;;;;;;2555120;23;20017;-74
2022/09/07 02:40:10;;;;;;;1.50;1.20;;;20.70;99.90;;;;;;2553774;23;20016;-74
2022/09/07 02:41:32;;;;;;;3.78;1.38;;;20.80;99.90;;;;;;2555114;23;20031;-74
2022/09/07 02:42:33;;;;;;;3.25;1.48;;;20.80;99.90;;;;;;2555156;23;20051;-74
2022/09/07 02:43:34;;;;;;;4.13;1.00;;;20.70;99.90;;;;;;2555128;23;20005;-74
2022/09/07 02:44:37;;;;;;;1.33;1.17;;;20.70;99.90;;;;;;2555803;23;20095;-74
2022/09/07 02:46:06;;;;;;;2.10;1.13;;;20.70;99.90;;;;;;2555570;23;20023;-74
2022/09/07 02:47:37;;;;;;;1.83;0.90;;;20.80;99.90;;;;;;2517768;23;20471;-74
2022/09/07 02:49:13;;;;;;;2.50;1.13;;;20.70;99.90;;;;;;2555702;23;19997;-73
2022/09/07 02:50:27;;;;;;;1.50;1.20;;;20.70;99.90;;;;;;2517929;23;20034;-74
2022/09/07 02:51:41;;;;;;;2.70;1.50;;;20.70;99.90;;;;;;2505792;23;20003;-74
2022/09/07 02:52:45;;;;;;;3.83;1.40;;;20.70;99.90;;;;;;2531543;23;20012;-74
2022/09/07 02:54:03;;;;;;;3.35;1.27;;;20.70;99.90;;;;;;2554889;23;20035;-74
2022/09/07 02:55:19;;;;;;;3.22;1.25;;;20.70;99.90;;;;;;2554602;23;20048;-74
2022/09/07 02:56:31;;;;;;;3.65;1.20;;;20.70;99.90;;;;;;2555022;23;20009;-74
2022/09/07 02:57:47;;;;;;;1.95;1.15;;;20.70;99.90;;;;;;2554227;23;20066;-74
2022/09/07 02:59:20;;;;;;;1.80;1.17;;;20.70;99.90;;;;;;2555495;23;19997;-74
2022/09/07 03:00:26;;;;;;;1.75;1.10;;;20.70;99.90;;;;;;2555814;23;20322;-74
2022/09/07 03:02:23;;;;;;;2.13;1.10;;;20.70;99.90;;;;;;2554422;23;20013;-74
2022/09/07 03:03:51;;;;;;;2.42;1.23;;;20.60;99.90;;;;;;2516041;23;20010;-74
2022/09/07 03:05:16;;;;;;;2.60;1.55;;;20.60;99.90;;;;;;2517649;23;20080;-74
2022/09/07 03:06:25;;;;;;;1.98;1.30;;;20.60;99.90;;;;;;2517758;23;20022;-74
2022/09/07 03:07:32;;;;;;;4.20;1.27;;;20.50;99.90;;;;;;2505440;23;20349;-74
2022/09/07 03:08:54;;;;;;;1.70;1.30;;;20.60;99.90;;;;;;2519992;23;20007;-74
2022/09/07 03:09:56;;;;;;;4.40;1.48;;;20.50;99.90;;;;;;2556449;23;20001;-74
2022/09/07 03:10:57;;;;;;;1.83;1.20;;;20.60;99.90;;;;;;2555890;23;20373;-74
2022/09/07 03:12:02;;;;;;;1.83;1.20;;;20.60;99.90;;;;;;2556549;23;20009;-74
2022/09/07 03:13:03;;;;;;;2.55;1.42;;;20.50;99.90;;;;;;2554585;23;19993;-74
2022/09/07 03:14:22;;;;;;;2.45;1.10;;;20.50;99.90;;;;;;2555341;23;20001;-74
2022/09/07 03:15:25;;;;;;;3.03;1.45;;;20.50;99.90;;;;;;2555742;23;19997;-74
2022/09/07 03:16:26;;;;;;;1.77;1.30;;;20.50;99.90;;;;;;2556024;23;20001;-74
2022/09/07 03:17:27;;;;;;;1.80;1.20;;;20.50;99.90;;;;;;2555729;23;20005;-74
2022/09/07 03:18:27;;;;;;;3.03;1.30;;;20.50;99.90;;;;;;2555672;23;20338;-74
2022/09/07 03:19:28;;;;;;;2.30;1.42;;;20.50;99.90;;;;;;2555557;23;20001;-74
2022/09/07 03:20:28;;;;;;;2.63;1.50;;;20.50;99.90;;;;;;2556084;23;20314;-74
2022/09/07 03:21:30;;;;;;;2.80;1.30;;;20.50;99.90;;;;;;2556317;23;20001;-74
2022/09/07 03:22:34;;;;;;;3.80;1.58;;;20.50;99.90;;;;;;2555053;23;20001;-74
2022/09/07 03:23:36;;;;;;;2.65;1.55;;;20.50;99.90;;;;;;2555465;23;19997;-74
2022/09/07 03:24:37;;;;;;;1.58;1.00;;;20.50;99.90;;;;;;2555478;23;20613;-74
2022/09/07 03:25:37;;;;;;;1.30;1.20;;;20.40;99.90;;;;;;2555769;23;20321;-74
2022/09/07 03:26:42;;;;;;;4.45;1.30;;;20.40;99.90;;;;;;2555189;23;20001;-74
2022/09/07 03:27:42;;;;;;;1.65;1.25;;;20.40;99.90;;;;;;2555146;23;20086;-74
2022/09/07 03:28:43;;;;;;;1.50;1.17;;;20.40;99.90;;;;;;2555443;23;20005;-74
2022/09/07 03:29:43;;;;;;;2.13;1.25;;;20.40;99.90;;;;;;2555602;23;20009;-74
2022/09/07 03:30:46;;;;;;;1.40;1.23;;;20.40;99.90;;;;;;2543164;23;20005;-74
2022/09/07 03:31:46;;;;;;;1.10;1.00;;;20.40;99.90;;;;;;2543227;23;20045;-74
2022/09/07 03:32:47;;;;;;;2.08;1.17;;;20.40;99.90;;;;;;2554730;23;20008;-74
2022/09/07 03:33:47;;;;;;;1.88;1.35;;;20.40;99.90;;;;;;2554819;23;20011;-74
2022/09/07 03:34:48;;;;;;;2.17;1.38;;;20.40;99.90;;;;;;2555277;23;20339;-74
2022/09/07 03:36:01;;;;;;;2.92;1.60;;;20.40;99.90;;;;;;2556109;23;20008;-74
2022/09/07 03:37:02;;;;;;;1.42;1.30;;;20.30;99.90;;;;;;2555258;23;20013;-74
2022/09/07 03:38:02;;;;;;;1.70;1.20;;;20.30;99.90;;;;;;2555334;23;20440;-74
2022/09/07 03:39:05;;;;;;;1.83;1.23;;;20.30;99.90;;;;;;2555678;23;20060;-74
2022/09/07 03:40:08;;;;;;;1.80;1.15;;;20.30;99.90;;;;;;2555134;23;20009;-74
2022/09/07 03:41:08;;;;;;;2.42;1.15;;;20.20;99.90;;;;;;2555242;23;20421;-74
2022/09/07 03:42:09;;;;;;;2.60;1.08;;;20.20;99.90;;;;;;2555195;23;20009;-74
2022/09/07 03:43:09;;;;;;;1.95;1.00;;;20.20;99.90;;;;;;2555899;23;20038;-74
2022/09/07 03:44:10;;;;;;;2.45;1.10;;;20.20;99.90;;;;;;2556160;23;20458;-74
2022/09/07 03:45:11;;;;;;;1.40;1.10;;;20.20;99.90;;;;;;2554962;23;20044;-74
2022/09/07 03:46:13;;;;;;;1.30;1.00;;;20.20;99.90;;;;;;2555024;23;20005;-74
2022/09/07 03:47:15;;;;;;;1.63;1.00;;;20.20;99.90;;;;;;2556023;23;20003;-74
2022/09/07 03:48:15;;;;;;;1.52;1.00;;;20.10;99.90;;;;;;2556019;23;20000;-74
2022/09/07 03:49:19;;;;;;;2.25;1.10;;;20.20;99.90;;;;;;2556096;23;20013;-74
2022/09/07 03:50:20;;;;;;;2.30;1.27;;;20.10;99.90;;;;;;2555701;23;20005;-74
2022/09/07 03:51:20;;;;;;;1.98;1.13;;;20.20;99.90;;;;;;2556110;23;20004;-74
2022/09/07 03:52:21;;;;;;;1.25;1.00;;;20.10;99.90;;;;;;2559365;23;20055;-74
2022/09/07 03:53:21;;;;;;;1.10;1.00;;;20.10;99.90;;;;;;2567403;23;20000;-74
2022/09/07 03:54:22;;;;;;;1.55;1.10;;;20.10;99.90;;;;;;2555682;23;20140;-74
2022/09/07 03:55:23;;;;;;;1.13;0.90;;;20.10;99.90;;;;;;2555384;23;20007;-74
2022/09/07 03:56:24;;;;;;;1.20;0.77;;;20.10;99.90;;;;;;2568291;23;20008;-74
2022/09/07 03:57:24;;;;;;;1.13;0.70;;;20.10;99.90;;;;;;2568039;23;20036;-74
2022/09/07 03:58:26;;;;;;;1.63;1.10;;;20.10;99.90;;;;;;2568605;23;20028;-74
2022/09/07 03:59:27;;;;;;;2.78;0.90;;;20.10;99.90;;;;;;2568669;23;20009;-74
2022/09/07 04:00:28;;;;;;;2.83;1.10;;;20.10;99.90;;;;;;2554901;23;19997;-74
2022/09/07 04:01:28;;;;;;;2.72;0.90;;;20.10;99.90;;;;;;2555196;23;20076;-74
2022/09/07 04:02:29;;;;;;;1.05;0.95;;;20.10;99.90;;;;;;2568607;23;20004;-74
2022/09/07 04:03:29;;;;;;;2.00;1.02;;;20.00;99.90;;;;;;2567909;23;20032;-74
2022/09/07 04:04:30;;;;;;;1.40;0.90;;;20.00;99.90;;;;;;2568198;23;20036;-74
2022/09/07 04:05:31;;;;;;;2.63;1.10;;;20.10;99.90;;;;;;2568585;23;20023;-74
2022/09/07 04:06:32;;;;;;;2.13;1.10;;;20.00;99.90;;;;;;2568530;23;20079;-74
2022/09/07 04:07:32;;;;;;;2.45;1.10;;;20.00;99.90;;;;;;2568224;23;19997;-74
2022/09/07 04:08:35;;;;;;;1.33;0.93;;;20.00;99.90;;;;;;2568454;23;20306;-74
2022/09/07 04:09:35;;;;;;;1.42;0.93;;;20.00;99.90;;;;;;2568000;23;20001;-74
2022/09/07 04:10:39;;;;;;;1.27;0.95;;;20.00;99.90;;;;;;2568533;23;20008;-74
2022/09/07 04:11:41;;;;;;;3.00;1.20;;;20.00;99.90;;;;;;2555178;23;20123;-74
2022/09/07 04:12:41;;;;;;;1.10;1.00;;;19.90;99.90;;;;;;2555112;23;20134;-74
2022/09/07 04:13:42;;;;;;;1.10;0.75;;;19.90;99.90;;;;;;2568117;23;20060;-74
2022/09/07 04:14:43;;;;;;;0.85;0.70;;;19.90;99.90;;;;;;2568634;23;20000;-74
2022/09/07 04:15:43;;;;;;;1.67;0.90;;;19.90;99.90;;;;;;2568074;23;20004;-74
2022/09/07 04:16:44;;;;;;;1.27;0.70;;;19.90;99.90;;;;;;2568103;23;20091;-74
2022/09/07 04:17:44;;;;;;;2.72;0.98;;;19.90;99.90;;;;;;2567903;23;20008;-74
2022/09/07 04:18:45;;;;;;;0.80;0.80;;;19.90;99.90;;;;;;2568496;23;20083;-74
2022/09/07 04:19:46;;;;;;;1.05;0.95;;;19.90;99.90;;;;;;2567851;23;20023;-74
2022/09/07 04:20:49;;;;;;;2.22;0.65;;;19.90;99.90;;;;;;2568572;23;20394;-74
2022/09/07 04:21:50;;;;;;;1.00;0.77;;;19.90;99.90;;;;;;2568882;23;19997;-74
2022/09/07 04:22:50;;;;;;;0.75;0.70;;;19.80;99.90;;;;;;2568041;23;20027;-74
2022/09/07 04:23:51;;;;;;;1.00;0.90;;;19.80;99.90;;;;;;2567677;23;20004;-74
2022/09/07 04:24:52;;;;;;;1.42;0.52;;;19.80;99.90;;;;;;2567957;23;20460;-74
2022/09/07 04:25:52;;;;;;;0.90;0.90;;;19.80;99.90;;;;;;2568399;23;20360;-74
2022/09/07 04:26:53;;;;;;;1.23;0.90;;;19.80;99.90;;;;;;2555003;23;20005;-74
2022/09/07 04:27:55;;;;;;;1.13;0.77;;;19.80;99.90;;;;;;2554729;23;20013;-74
2022/09/07 04:28:56;;;;;;;0.73;0.73;;;19.80;99.90;;;;;;2568389;23;19997;-74
2022/09/07 04:29:56;;;;;;;1.00;0.90;;;19.80;99.90;;;;;;2568176;23;20008;-74
2022/09/07 04:31:01;;;;;;;1.20;0.90;;;19.80;99.90;;;;;;2568441;23;20433;-74
2022/09/07 04:32:01;;;;;;;1.42;0.90;;;19.70;99.90;;;;;;2568034;23;20009;-74
2022/09/07 04:33:02;;;;;;;1.63;1.08;;;19.70;99.90;;;;;;2568191;23;20063;-74
2022/09/07 04:34:04;;;;;;;0.63;0.63;;;19.70;99.90;;;;;;2555356;23;20412;-74
2022/09/07 04:35:05;;;;;;;0.77;0.77;;;19.70;99.90;;;;;;2555417;23;20000;-74
2022/09/07 04:36:09;;;;;;;1.83;0.90;;;19.70;99.90;;;;;;2567766;23;19997;-74
2022/09/07 04:37:11;;;;;;;1.05;0.95;;;19.70;99.90;;;;;;2568558;23;20337;-74
2022/09/07 04:38:14;;;;;;;0.98;0.73;;;19.70;99.90;;;;;;2568048;23;20315;-74
2022/09/07 04:39:14;;;;;;;1.55;0.90;;;19.70;99.90;;;;;;2568588;23;20028;-74
2022/09/07 04:40:15;;;;;;;1.13;0.80;;;19.60;99.90;;;;;;2567963;23;20020;-74
2022/09/07 04:41:17;;;;;;;1.30;1.20;;;19.60;99.90;;;;;;2568580;23;20531;-74
2022/09/07 04:42:18;;;;;;;2.25;1.15;;;19.60;99.90;;;;;;2567772;23;20430;-74
2022/09/07 04:43:18;;;;;;;1.15;0.90;;;19.60;99.90;;;;;;2554780;23;20349;-74
2022/09/07 04:44:19;;;;;;;1.23;0.98;;;19.60;99.90;;;;;;2555099;23;20056;-74
2022/09/07 04:45:19;;;;;;;2.72;0.90;;;19.50;99.90;;;;;;2555177;23;20004;-74
2022/09/07 04:46:25;;;;;;;1.25;1.10;;;19.60;99.90;;;;;;2568062;23;20531;-74
2022/09/07 04:47:29;;;;;;;1.25;1.10;;;19.50;99.90;;;;;;2567873;23;20782;-74
2022/09/07 04:48:29;;;;;;;2.13;1.30;;;19.60;99.90;;;;;;2567339;23;20012;-74
2022/09/07 04:49:30;;;;;;;1.70;1.30;;;19.50;99.90;;;;;;2567779;23;20055;-74
2022/09/07 04:50:31;;;;;;;2.92;1.20;;;19.50;99.90;;;;;;2568278;23;20005;-74
2022/09/07 04:51:32;;;;;;;1.40;0.88;;;19.50;99.90;;;;;;2568436;23;20024;-74
2022/09/07 04:52:32;;;;;;;1.00;1.00;;;19.50;99.90;;;;;;2567959;23;20009;-74
2022/09/07 04:53:34;;;;;;;0.65;0.65;;;19.50;99.90;;;;;;2567798;23;20011;-74
2022/09/07 04:54:35;;;;;;;1.10;0.80;;;19.40;99.90;;;;;;2568361;23;19997;-74
2022/09/07 04:55:35;;;;;;;2.38;1.10;;;19.40;99.90;;;;;;2568449;23;20008;-74
2022/09/07 04:56:36;;;;;;;1.35;1.02;;;19.40;99.90;;;;;;2568081;23;20008;-74
2022/09/07 04:57:37;;;;;;;1.23;1.05;;;19.40;99.90;;;;;;2555127;23;20092;-74
2022/09/07 04:58:38;;;;;;;1.00;1.00;;;19.40;99.90;;;;;;2555329;23;20380;-73
2022/09/07 04:59:38;;;;;;;1.60;0.90;;;19.40;99.90;;;;;;2567814;23;20007;-74
2022/09/07 05:00:39;;;;;;;1.00;0.90;;;19.40;99.90;;;;;;2568114;23;20722;-74
2022/09/07 05:01:40;;;;;;;1.08;0.80;;;19.40;99.90;;;;;;2568200;23;20004;-73
2022/09/07 05:02:40;;;;;;;1.15;0.85;;;19.40;99.90;;;;;;2568021;23;20051;-74
2022/09/07 05:03:41;;;;;;;1.40;1.30;;;19.40;99.90;;;;;;2554698;23;20059;-74
2022/09/07 05:04:42;;;;;;;3.50;1.17;;;19.40;99.90;;;;;;2555413;23;20438;-73
2022/09/07 05:05:43;;;;;;;3.42;1.00;;;19.30;99.90;;;;;;2554246;23;20297;-73
2022/09/07 05:06:44;;;;;;;0.98;0.90;;;19.30;99.90;;;;;;2555214;23;20007;-73
2022/09/07 05:07:45;;;;;;;1.35;1.00;;;19.30;99.90;;;;;;2567843;23;19996;-73
2022/09/07 05:08:48;;;;;;;1.23;1.08;;;19.30;99.90;;;;;;2568299;23;20007;-73
2022/09/07 05:09:48;;;;;;;1.48;1.13;;;19.30;99.90;;;;;;2568209;23;20024;-73
2022/09/07 05:10:52;;;;;;;1.70;1.30;;;19.30;99.90;;;;;;2568445;23;20590;-73
2022/09/07 05:11:53;;;;;;;0.98;0.80;;;19.30;99.90;;;;;;2568067;23;20035;-73
2022/09/07 05:12:54;;;;;;;2.08;1.38;;;19.30;99.90;;;;;;2568401;23;20406;-73
2022/09/07 05:13:59;;;;;;;2.28;1.08;;;19.30;99.90;;;;;;2567413;23;20005;-73
2022/09/07 05:15:00;;;;;;;1.10;1.00;;;19.30;99.90;;;;;;2568250;23;20032;-74
2022/09/07 05:16:19;;;;;;;3.17;1.42;;;19.30;99.90;;;;;;2555057;23;20009;-73
2022/09/07 05:17:20;;;;;;;1.63;1.10;;;19.30;99.90;;;;;;2558960;23;20040;-73
2022/09/07 05:18:21;;;;;;;1.30;1.20;;;19.30;99.90;;;;;;2555085;23;20009;-73
2022/09/07 05:19:22;;;;;;;1.85;1.55;;;19.30;99.90;;;;;;2555007;23;20083;-74
2022/09/07 05:20:23;;;;;;;1.58;1.42;;;19.30;99.90;;;;;;2554790;23;20125;-74
2022/09/07 05:21:29;;;;;;;2.60;1.73;;;19.20;99.90;;;;;;2555387;23;20001;-74
2022/09/07 05:22:30;;;;;;;1.73;1.50;;;19.20;99.90;;;;;;2568137;23;20008;-73
2022/09/07 05:23:30;;;;;;;1.95;1.70;;;19.20;99.90;;;;;;2553230;23;20448;-73
2022/09/07 05:24:32;;;;;;;1.55;1.45;;;19.20;99.90;;;;;;2541475;23;20465;-74
2022/09/07 05:25:33;;;;;;;2.60;1.95;;;19.20;99.90;;;;;;2554934;23;20375;-74
2022/09/07 05:26:35;;;;;;;1.80;1.70;;;19.20;99.90;;;;;;2567332;23;20046;-73
2022/09/07 05:27:36;;;;;;;1.80;1.70;;;19.20;99.90;;;;;;2568250;23;20072;-73
2022/09/07 05:28:37;;;;;;;2.60;1.40;;;19.20;99.90;;;;;;2568002;23;19996;-73
2022/09/07 05:29:38;;;;;;;1.90;1.23;;;19.20;99.90;;;;;;2568031;23;20340;-73
2022/09/07 05:30:39;;;;;;;4.05;1.70;;;19.20;99.90;;;;;;2567807;23;20080;-74
2022/09/07 05:31:40;;;;;;;4.20;1.70;;;19.20;99.90;;;;;;2567916;23;20665;-73
2022/09/07 05:32:44;;;;;;;3.63;1.67;;;19.20;99.90;;;;;;2567561;23;20084;-73
2022/09/07 05:33:46;;;;;;;2.45;1.63;;;19.20;99.90;;;;;;2566576;23;19996;-74
2022/09/07 05:34:46;;;;;;;2.22;1.50;;;19.20;99.90;;;;;;2567485;23;20126;-73
2022/09/07 05:35:56;;;;;;;1.73;1.58;;;19.20;99.90;;;;;;2567486;23;20001;-73
2022/09/07 05:36:57;;;;;;;2.20;1.73;;;19.20;99.90;;;;;;2567323;23;20009;-73
2022/09/07 05:37:57;;;;;;;1.60;1.50;;;19.20;99.90;;;;;;2567570;23;20032;-73
2022/09/07 05:38:58;;;;;;;1.50;1.40;;;19.20;99.90;;;;;;2554365;23;20415;-73
2022/09/07 05:39:58;;;;;;;2.58;1.98;;;19.20;99.90;;;;;;2554781;23;20008;-73
2022/09/07 05:40:59;;;;;;;3.30;2.05;;;19.20;99.90;;;;;;2567912;23;20035;-73